sensor_id;sensor_type;location;lat;lon;timestamp;P1;durP1;ratioP1;P2;durP2;ratioP2
52978;SDS011;51106;53.186;6.598;2022-08-02T00:00:55;2.20;;;2.00;;
52978;SDS011;51106;53.186;6.598;2022-08-02T00:02:57;3.20;;;2.20;;
52978;SDS011;51106;53.186;6.598;2022-08-02T00:04:59;3.63;;;2.33;;
52978;SDS011;51106;53.186;6.598;2022-08-02T00:07:01;4.38;;;2.40;;
52978;SDS011;51106;53.186;6.598;2022-08-02T00:09:03;5.05;;;2.78;;
52978;SDS011;51106;53.186;6.598;2022-08-02T00:11:07;3.15;;;2.85;;
52978;SDS011;51106;53.186;6.598;2022-08-02T00:13:11;2.80;;;2.30;;
52978;SDS011;51106;53.186;6.598;2022-08-02T00:15:15;5.07;;;2.53;;
52978;SDS011;51106;53.186;6.598;2022-08-02T00:17:18;3.97;;;2.80;;
52978;SDS011;51106;53.186;6.598;2022-08-02T00:19:20;6.07;;;3.03;;
52978;SDS011;51106;53.186;6.598;2022-08-02T00:21:22;8.27;;;3.30;;
52978;SDS011;51106;53.186;6.598;2022-08-02T00:23:24;4.63;;;2.67;;
52978;SDS011;51106;53.186;6.598;2022-08-02T00:25:26;5.03;;;3.30;;
52978;SDS011;51106;53.186;6.598;2022-08-02T00:27:28;7.18;;;2.90;;
52978;SDS011;51106;53.186;6.598;2022-08-02T00:29:30;5.65;;;2.88;;
52978;SDS011;51106;53.186;6.598;2022-08-02T00:31:33;4.57;;;3.08;;
52978;SDS011;51106;53.186;6.598;2022-08-02T00:33:35;5.57;;;2.63;;
52978;SDS011;51106;53.186;6.598;2022-08-02T00:35:57;4.60;;;2.72;;
52978;SDS011;51106;53.186;6.598;2022-08-02T00:37:59;5.82;;;2.90;;
52978;SDS011;51106;53.186;6.598;2022-08-02T00:40:01;6.07;;;2.80;;
52978;SDS011;51106;53.186;6.598;2022-08-02T00:42:03;6.72;;;3.03;;
52978;SDS011;51106;53.186;6.598;2022-08-02T00:44:05;5.03;;;2.90;;
52978;SDS011;51106;53.186;6.598;2022-08-02T00:46:13;7.45;;;3.05;;
52978;SDS011;51106;53.186;6.598;2022-08-02T00:48:16;5.32;;;2.75;;
52978;SDS011;51106;53.186;6.598;2022-08-02T00:50:18;7.03;;;3.55;;
52978;SDS011;51106;53.186;6.598;2022-08-02T00:52:21;6.32;;;2.63;;
52978;SDS011;51106;53.186;6.598;2022-08-02T00:54:24;5.78;;;2.80;;
52978;SDS011;51106;53.186;6.598;2022-08-02T00:56:27;4.80;;;2.80;;
52978;SDS011;51106;53.186;6.598;2022-08-02T00:58:29;8.43;;;3.30;;
52978;SDS011;51106;53.186;6.598;2022-08-02T01:00:31;6.72;;;2.90;;
52978;SDS011;51106;53.186;6.598;2022-08-02T01:02:33;4.45;;;3.20;;
52978;SDS011;51106;53.186;6.598;2022-08-02T01:04:35;6.93;;;2.90;;
52978;SDS011;51106;53.186;6.598;2022-08-02T01:06:37;7.95;;;2.92;;
52978;SDS011;51106;53.186;6.598;2022-08-02T01:08:41;5.80;;;2.97;;
52978;SDS011;51106;53.186;6.598;2022-08-02T01:10:44;4.82;;;3.05;;
52978;SDS011;51106;53.186;6.598;2022-08-02T01:12:48;7.00;;;3.05;;
52978;SDS011;51106;53.186;6.598;2022-08-02T01:14:51;6.80;;;3.10;;
52978;SDS011;51106;53.186;6.598;2022-08-02T01:17:02;6.30;;;3.15;;
52978;SDS011;51106;53.186;6.598;2022-08-02T01:19:30;5.45;;;3.05;;
52978;SDS011;51106;53.186;6.598;2022-08-02T01:22:15;10.57;;;3.15;;
52978;SDS011;51106;53.186;6.598;2022-08-02T01:27:32;8.95;;;3.08;;
52978;SDS011;51106;53.186;6.598;2022-08-02T01:29:38;9.05;;;2.97;;
52978;SDS011;51106;53.186;6.598;2022-08-02T01:31:49;7.55;;;2.92;;
52978;SDS011;51106;53.186;6.598;2022-08-02T01:34:10;5.20;;;2.90;;
52978;SDS011;51106;53.186;6.598;2022-08-02T01:36:17;7.65;;;2.92;;
52978;SDS011;51106;53.186;6.598;2022-08-02T01:38:25;5.60;;;3.00;;
52978;SDS011;51106;53.186;6.598;2022-08-02T01:40:38;8.38;;;3.45;;
52978;SDS011;51106;53.186;6.598;2022-08-02T01:42:45;8.52;;;3.15;;
52978;SDS011;51106;53.186;6.598;2022-08-02T01:44:49;7.80;;;3.40;;
52978;SDS011;51106;53.186;6.598;2022-08-02T01:48:58;5.93;;;3.45;;
52978;SDS011;51106;53.186;6.598;2022-08-02T01:51:10;7.00;;;3.08;;
52978;SDS011;51106;53.186;6.598;2022-08-02T01:53:15;10.68;;;3.38;;
52978;SDS011;51106;53.186;6.598;2022-08-02T01:55:21;9.95;;;3.53;;
52978;SDS011;51106;53.186;6.598;2022-08-02T01:58:00;8.68;;;3.75;;
52978;SDS011;51106;53.186;6.598;2022-08-02T02:00:04;11.88;;;3.65;;
52978;SDS011;51106;53.186;6.598;2022-08-02T02:02:09;10.75;;;4.13;;
52978;SDS011;51106;53.186;6.598;2022-08-02T02:04:13;8.70;;;3.75;;
52978;SDS011;51106;53.186;6.598;2022-08-02T02:08:20;12.25;;;4.10;;
52978;SDS011;51106;53.186;6.598;2022-08-02T02:10:28;6.03;;;3.60;;
52978;SDS011;51106;53.186;6.598;2022-08-02T02:12:33;4.97;;;3.58;;
52978;SDS011;51106;53.186;6.598;2022-08-02T02:14:38;10.25;;;3.63;;
52978;SDS011;51106;53.186;6.598;2022-08-02T02:16:52;7.68;;;3.80;;
52978;SDS011;51106;53.186;6.598;2022-08-02T02:18:55;7.95;;;3.92;;
52978;SDS011;51106;53.186;6.598;2022-08-02T02:21:00;12.30;;;4.30;;
52978;SDS011;51106;53.186;6.598;2022-08-02T02:23:02;9.63;;;4.22;;
52978;SDS011;51106;53.186;6.598;2022-08-02T02:25:06;9.75;;;3.63;;
52978;SDS011;51106;53.186;6.598;2022-08-02T02:27:11;11.82;;;4.28;;
52978;SDS011;51106;53.186;6.598;2022-08-02T02:29:15;8.65;;;3.50;;
52978;SDS011;51106;53.186;6.598;2022-08-02T02:31:20;6.45;;;3.80;;
52978;SDS011;51106;53.186;6.598;2022-08-02T02:33:22;8.53;;;3.93;;
52978;SDS011;51106;53.186;6.598;2022-08-02T02:35:31;11.52;;;4.18;;
52978;SDS011;51106;53.186;6.598;2022-08-02T02:37:37;12.75;;;3.67;;
52978;SDS011;51106;53.186;6.598;2022-08-02T02:39:41;8.27;;;3.97;;
52978;SDS011;51106;53.186;6.598;2022-08-02T02:41:45;9.73;;;4.15;;
52978;SDS011;51106;53.186;6.598;2022-08-02T02:43:49;9.32;;;3.97;;
52978;SDS011;51106;53.186;6.598;2022-08-02T02:45:54;6.53;;;3.83;;
52978;SDS011;51106;53.186;6.598;2022-08-02T02:47:57;11.00;;;4.50;;
52978;SDS011;51106;53.186;6.598;2022-08-02T02:50:02;11.63;;;3.85;;
52978;SDS011;51106;53.186;6.598;2022-08-02T02:52:05;11.20;;;4.05;;
52978;SDS011;51106;53.186;6.598;2022-08-02T02:54:09;8.90;;;3.70;;
52978;SDS011;51106;53.186;6.598;2022-08-02T02:56:33;11.87;;;3.70;;
52978;SDS011;51106;53.186;6.598;2022-08-02T02:58:39;7.97;;;3.78;;
52978;SDS011;51106;53.186;6.598;2022-08-02T03:00:42;8.55;;;3.47;;
52978;SDS011;51106;53.186;6.598;2022-08-02T03:03:03;8.85;;;3.53;;
52978;SDS011;51106;53.186;6.598;2022-08-02T03:05:06;10.18;;;3.75;;
52978;SDS011;51106;53.186;6.598;2022-08-02T03:07:10;8.18;;;3.70;;
52978;SDS011;51106;53.186;6.598;2022-08-02T03:09:12;10.65;;;3.80;;
52978;SDS011;51106;53.186;6.598;2022-08-02T03:11:14;8.07;;;3.65;;
52978;SDS011;51106;53.186;6.598;2022-08-02T03:13:17;9.05;;;3.78;;
52978;SDS011;51106;53.186;6.598;2022-08-02T03:15:20;8.13;;;3.50;;
52978;SDS011;51106;53.186;6.598;2022-08-02T03:17:24;7.57;;;3.70;;
52978;SDS011;51106;53.186;6.598;2022-08-02T03:19:26;7.40;;;3.50;;
52978;SDS011;51106;53.186;6.598;2022-08-02T03:21:33;7.10;;;3.17;;
52978;SDS011;51106;53.186;6.598;2022-08-02T03:23:36;8.38;;;3.28;;
52978;SDS011;51106;53.186;6.598;2022-08-02T03:25:39;11.35;;;3.50;;
52978;SDS011;51106;53.186;6.598;2022-08-02T03:27:41;9.32;;;3.40;;
52978;SDS011;51106;53.186;6.598;2022-08-02T03:29:43;7.07;;;3.60;;
52978;SDS011;51106;53.186;6.598;2022-08-02T03:31:45;6.57;;;3.55;;
52978;SDS011;51106;53.186;6.598;2022-08-02T03:33:47;10.68;;;3.50;;
52978;SDS011;51106;53.186;6.598;2022-08-02T03:35:50;9.00;;;3.42;;
52978;SDS011;51106;53.186;6.598;2022-08-02T03:37:54;7.47;;;3.63;;
52978;SDS011;51106;53.186;6.598;2022-08-02T03:39:57;8.48;;;3.45;;
52978;SDS011;51106;53.186;6.598;2022-08-02T03:42:00;7.85;;;3.35;;
52978;SDS011;51106;53.186;6.598;2022-08-02T03:44:03;10.30;;;4.22;;
52978;SDS011;51106;53.186;6.598;2022-08-02T03:46:09;7.95;;;3.70;;
52978;SDS011;51106;53.186;6.598;2022-08-02T03:48:15;5.72;;;3.38;;
52978;SDS011;51106;53.186;6.598;2022-08-02T03:50:35;11.10;;;4.18;;
52978;SDS011;51106;53.186;6.598;2022-08-02T03:52:39;7.25;;;3.50;;
52978;SDS011;51106;53.186;6.598;2022-08-02T03:54:42;11.60;;;3.67;;
52978;SDS011;51106;53.186;6.598;2022-08-02T03:56:46;9.25;;;3.55;;
52978;SDS011;51106;53.186;6.598;2022-08-02T03:58:48;7.82;;;3.67;;
52978;SDS011;51106;53.186;6.598;2022-08-02T04:00:51;7.20;;;4.18;;
52978;SDS011;51106;53.186;6.598;2022-08-02T04:02:55;9.93;;;3.78;;
52978;SDS011;51106;53.186;6.598;2022-08-02T04:04:57;15.73;;;3.83;;
52978;SDS011;51106;53.186;6.598;2022-08-02T04:06:59;7.45;;;3.80;;
52978;SDS011;51106;53.186;6.598;2022-08-02T04:09:01;8.52;;;3.40;;
52978;SDS011;51106;53.186;6.598;2022-08-02T04:11:03;8.18;;;3.78;;
52978;SDS011;51106;53.186;6.598;2022-08-02T04:13:25;7.88;;;3.15;;
52978;SDS011;51106;53.186;6.598;2022-08-02T04:15:37;12.38;;;3.90;;
52978;SDS011;51106;53.186;6.598;2022-08-02T04:17:44;7.15;;;3.50;;
52978;SDS011;51106;53.186;6.598;2022-08-02T04:19:55;5.20;;;3.58;;
52978;SDS011;51106;53.186;6.598;2022-08-02T04:22:23;8.48;;;3.90;;
52978;SDS011;51106;53.186;6.598;2022-08-02T04:24:28;8.55;;;3.38;;
52978;SDS011;51106;53.186;6.598;2022-08-02T04:26:35;8.48;;;3.60;;
52978;SDS011;51106;53.186;6.598;2022-08-02T04:28:42;7.72;;;3.80;;
52978;SDS011;51106;53.186;6.598;2022-08-02T04:30:45;9.50;;;4.03;;
52978;SDS011;51106;53.186;6.598;2022-08-02T04:32:48;13.07;;;4.00;;
52978;SDS011;51106;53.186;6.598;2022-08-02T04:34:51;7.03;;;3.83;;
52978;SDS011;51106;53.186;6.598;2022-08-02T04:37:13;7.25;;;4.40;;
52978;SDS011;51106;53.186;6.598;2022-08-02T04:39:16;8.65;;;3.72;;
52978;SDS011;51106;53.186;6.598;2022-08-02T04:41:19;11.82;;;3.92;;
52978;SDS011;51106;53.186;6.598;2022-08-02T04:43:22;6.32;;;3.90;;
52978;SDS011;51106;53.186;6.598;2022-08-02T04:45:24;8.45;;;4.22;;
52978;SDS011;51106;53.186;6.598;2022-08-02T04:47:29;8.95;;;4.35;;
52978;SDS011;51106;53.186;6.598;2022-08-02T04:49:51;13.00;;;4.68;;
52978;SDS011;51106;53.186;6.598;2022-08-02T04:51:53;13.45;;;4.57;;
52978;SDS011;51106;53.186;6.598;2022-08-02T04:53:56;9.10;;;4.40;;
52978;SDS011;51106;53.186;6.598;2022-08-02T04:58:12;8.60;;;4.32;;
52978;SDS011;51106;53.186;6.598;2022-08-02T05:00:35;8.65;;;3.88;;
52978;SDS011;51106;53.186;6.598;2022-08-02T05:02:40;8.05;;;4.10;;
52978;SDS011;51106;53.186;6.598;2022-08-02T05:04:42;8.00;;;4.18;;
52978;SDS011;51106;53.186;6.598;2022-08-02T05:06:44;12.25;;;4.65;;
52978;SDS011;51106;53.186;6.598;2022-08-02T05:08:47;5.78;;;3.65;;
52978;SDS011;51106;53.186;6.598;2022-08-02T05:10:54;11.20;;;4.38;;
52978;SDS011;51106;53.186;6.598;2022-08-02T05:12:56;9.18;;;4.20;;
52978;SDS011;51106;53.186;6.598;2022-08-02T05:14:58;8.52;;;3.97;;
52978;SDS011;51106;53.186;6.598;2022-08-02T05:17:01;10.75;;;4.28;;
52978;SDS011;51106;53.186;6.598;2022-08-02T05:19:03;10.13;;;4.40;;
52978;SDS011;51106;53.186;6.598;2022-08-02T05:21:05;8.40;;;4.18;;
52978;SDS011;51106;53.186;6.598;2022-08-02T05:23:07;11.48;;;4.65;;
52978;SDS011;51106;53.186;6.598;2022-08-02T05:25:12;8.88;;;4.07;;
52978;SDS011;51106;53.186;6.598;2022-08-02T05:27:14;11.73;;;4.00;;
52978;SDS011;51106;53.186;6.598;2022-08-02T05:29:22;10.07;;;4.28;;
52978;SDS011;51106;53.186;6.598;2022-08-02T05:31:33;11.48;;;4.25;;
52978;SDS011;51106;53.186;6.598;2022-08-02T05:33:43;10.80;;;4.40;;
52978;SDS011;51106;53.186;6.598;2022-08-02T05:35:45;15.63;;;4.70;;
52978;SDS011;51106;53.186;6.598;2022-08-02T05:37:48;8.75;;;4.07;;
52978;SDS011;51106;53.186;6.598;2022-08-02T05:39:56;12.13;;;4.35;;
52978;SDS011;51106;53.186;6.598;2022-08-02T05:41:58;7.38;;;4.00;;
52978;SDS011;51106;53.186;6.598;2022-08-02T05:44:01;8.77;;;4.32;;
52978;SDS011;51106;53.186;6.598;2022-08-02T05:46:06;7.60;;;4.40;;
52978;SDS011;51106;53.186;6.598;2022-08-02T05:48:08;9.43;;;4.25;;
52978;SDS011;51106;53.186;6.598;2022-08-02T05:50:10;6.72;;;4.25;;
52978;SDS011;51106;53.186;6.598;2022-08-02T05:54:19;6.78;;;3.75;;
52978;SDS011;51106;53.186;6.598;2022-08-02T05:56:37;8.65;;;3.97;;
52978;SDS011;51106;53.186;6.598;2022-08-02T05:59:00;10.32;;;3.97;;
52978;SDS011;51106;53.186;6.598;2022-08-02T06:01:26;10.18;;;4.10;;
52978;SDS011;51106;53.186;6.598;2022-08-02T06:03:38;10.05;;;3.72;;
52978;SDS011;51106;53.186;6.598;2022-08-02T06:08:49;9.75;;;3.90;;
52978;SDS011;51106;53.186;6.598;2022-08-02T06:10:51;11.30;;;4.97;;
52978;SDS011;51106;53.186;6.598;2022-08-02T06:15:07;11.48;;;3.65;;
52978;SDS011;51106;53.186;6.598;2022-08-02T06:17:10;9.07;;;4.57;;
52978;SDS011;51106;53.186;6.598;2022-08-02T06:19:14;9.32;;;3.85;;
52978;SDS011;51106;53.186;6.598;2022-08-02T06:21:18;8.73;;;3.92;;
52978;SDS011;51106;53.186;6.598;2022-08-02T06:23:45;9.07;;;3.95;;
52978;SDS011;51106;53.186;6.598;2022-08-02T06:25:59;9.52;;;4.28;;
52978;SDS011;51106;53.186;6.598;2022-08-02T06:28:04;11.23;;;3.80;;
52978;SDS011;51106;53.186;6.598;2022-08-02T06:30:12;11.15;;;3.85;;
52978;SDS011;51106;53.186;6.598;2022-08-02T06:32:17;6.90;;;3.58;;
52978;SDS011;51106;53.186;6.598;2022-08-02T06:34:20;14.65;;;4.00;;
52978;SDS011;51106;53.186;6.598;2022-08-02T06:36:42;9.30;;;3.67;;
52978;SDS011;51106;53.186;6.598;2022-08-02T06:39:04;5.65;;;3.30;;
52978;SDS011;51106;53.186;6.598;2022-08-02T06:41:20;8.82;;;3.42;;
52978;SDS011;51106;53.186;6.598;2022-08-02T06:43:29;8.32;;;3.40;;
52978;SDS011;51106;53.186;6.598;2022-08-02T06:45:50;7.00;;;3.20;;
52978;SDS011;51106;53.186;6.598;2022-08-02T06:47:53;7.38;;;3.28;;
52978;SDS011;51106;53.186;6.598;2022-08-02T06:49:55;10.60;;;3.50;;
52978;SDS011;51106;53.186;6.598;2022-08-02T06:51:58;9.38;;;3.55;;
52978;SDS011;51106;53.186;6.598;2022-08-02T06:54:01;5.85;;;3.10;;
52978;SDS011;51106;53.186;6.598;2022-08-02T06:56:03;10.48;;;3.38;;
52978;SDS011;51106;53.186;6.598;2022-08-02T06:58:09;7.40;;;2.90;;
52978;SDS011;51106;53.186;6.598;2022-08-02T07:00:13;8.88;;;3.65;;
52978;SDS011;51106;53.186;6.598;2022-08-02T07:02:20;5.68;;;2.90;;
52978;SDS011;51106;53.186;6.598;2022-08-02T07:04:23;7.32;;;2.67;;
52978;SDS011;51106;53.186;6.598;2022-08-02T07:06:25;5.55;;;3.20;;
52978;SDS011;51106;53.186;6.598;2022-08-02T07:08:27;5.07;;;2.70;;
52978;SDS011;51106;53.186;6.598;2022-08-02T07:10:32;5.55;;;2.58;;
52978;SDS011;51106;53.186;6.598;2022-08-02T07:12:35;6.70;;;2.80;;
52978;SDS011;51106;53.186;6.598;2022-08-02T07:14:37;4.82;;;2.90;;
52978;SDS011;51106;53.186;6.598;2022-08-02T07:16:40;8.00;;;3.45;;
52978;SDS011;51106;53.186;6.598;2022-08-02T07:18:43;4.68;;;2.45;;
52978;SDS011;51106;53.186;6.598;2022-08-02T07:20:51;6.05;;;2.85;;
52978;SDS011;51106;53.186;6.598;2022-08-02T07:22:53;6.85;;;2.65;;
52978;SDS011;51106;53.186;6.598;2022-08-02T07:24:56;9.60;;;2.80;;
52978;SDS011;51106;53.186;6.598;2022-08-02T07:27:00;9.10;;;2.63;;
52978;SDS011;51106;53.186;6.598;2022-08-02T07:29:12;5.07;;;2.70;;
52978;SDS011;51106;53.186;6.598;2022-08-02T07:31:15;4.38;;;2.63;;
52978;SDS011;51106;53.186;6.598;2022-08-02T07:33:17;6.30;;;2.58;;
52978;SDS011;51106;53.186;6.598;2022-08-02T07:35:39;5.15;;;2.63;;
52978;SDS011;51106;53.186;6.598;2022-08-02T07:37:53;5.13;;;2.47;;
52978;SDS011;51106;53.186;6.598;2022-08-02T07:40:03;11.60;;;3.58;;
52978;SDS011;51106;53.186;6.598;2022-08-02T07:42:14;7.40;;;2.58;;
52978;SDS011;51106;53.186;6.598;2022-08-02T07:44:19;3.65;;;2.35;;
52978;SDS011;51106;53.186;6.598;2022-08-02T07:46:25;7.25;;;2.40;;
52978;SDS011;51106;53.186;6.598;2022-08-02T07:48:28;4.75;;;2.60;;
52978;SDS011;51106;53.186;6.598;2022-08-02T07:50:31;4.93;;;2.58;;
52978;SDS011;51106;53.186;6.598;2022-08-02T07:52:39;5.03;;;2.25;;
52978;SDS011;51106;53.186;6.598;2022-08-02T07:56:45;4.82;;;1.95;;
52978;SDS011;51106;53.186;6.598;2022-08-02T07:58:57;3.33;;;2.25;;
52978;SDS011;51106;53.186;6.598;2022-08-02T08:01:00;6.53;;;2.33;;
52978;SDS011;51106;53.186;6.598;2022-08-02T08:03:02;6.22;;;2.35;;
52978;SDS011;51106;53.186;6.598;2022-08-02T08:05:05;5.38;;;2.03;;
52978;SDS011;51106;53.186;6.598;2022-08-02T08:07:12;4.95;;;2.25;;
52978;SDS011;51106;53.186;6.598;2022-08-02T08:09:18;4.45;;;2.15;;
52978;SDS011;51106;53.186;6.598;2022-08-02T08:11:21;3.25;;;1.90;;
52978;SDS011;51106;53.186;6.598;2022-08-02T08:13:25;3.67;;;1.80;;
52978;SDS011;51106;53.186;6.598;2022-08-02T08:15:29;4.22;;;2.00;;
52978;SDS011;51106;53.186;6.598;2022-08-02T08:17:31;2.75;;;1.88;;
52978;SDS011;51106;53.186;6.598;2022-08-02T08:19:34;4.43;;;2.00;;
52978;SDS011;51106;53.186;6.598;2022-08-02T08:21:53;4.28;;;2.28;;
52978;SDS011;51106;53.186;6.598;2022-08-02T08:23:58;11.43;;;2.28;;
52978;SDS011;51106;53.186;6.598;2022-08-02T08:26:06;12.32;;;2.83;;
52978;SDS011;51106;53.186;6.598;2022-08-02T08:28:16;4.25;;;1.80;;
52978;SDS011;51106;53.186;6.598;2022-08-02T08:30:19;11.45;;;1.83;;
52978;SDS011;51106;53.186;6.598;2022-08-02T08:32:26;4.22;;;2.10;;
52978;SDS011;51106;53.186;6.598;2022-08-02T08:34:30;4.30;;;2.08;;
52978;SDS011;51106;53.186;6.598;2022-08-02T08:36:33;4.93;;;1.83;;
52978;SDS011;51106;53.186;6.598;2022-08-02T08:38:36;4.00;;;1.60;;
52978;SDS011;51106;53.186;6.598;2022-08-02T08:40:38;3.53;;;1.70;;
52978;SDS011;51106;53.186;6.598;2022-08-02T08:42:50;2.08;;;1.70;;
52978;SDS011;51106;53.186;6.598;2022-08-02T08:44:54;5.32;;;2.03;;
52978;SDS011;51106;53.186;6.598;2022-08-02T08:47:04;4.78;;;1.80;;
52978;SDS011;51106;53.186;6.598;2022-08-02T08:49:16;3.92;;;1.80;;
52978;SDS011;51106;53.186;6.598;2022-08-02T08:51:35;3.00;;;1.80;;
52978;SDS011;51106;53.186;6.598;2022-08-02T08:53:42;3.83;;;1.83;;
52978;SDS011;51106;53.186;6.598;2022-08-02T08:55:45;2.33;;;1.60;;
52978;SDS011;51106;53.186;6.598;2022-08-02T09:00:50;6.65;;;2.20;;
52978;SDS011;51106;53.186;6.598;2022-08-02T09:06:43;4.28;;;1.90;;
52978;SDS011;51106;53.186;6.598;2022-08-02T09:12:26;5.32;;;1.77;;
52978;SDS011;51106;53.186;6.598;2022-08-02T09:15:10;3.90;;;1.90;;
52978;SDS011;51106;53.186;6.598;2022-08-02T09:18:03;3.10;;;1.90;;
52978;SDS011;51106;53.186;6.598;2022-08-02T09:23:40;3.20;;;1.98;;
52978;SDS011;51106;53.186;6.598;2022-08-02T09:26:08;3.08;;;1.80;;
52978;SDS011;51106;53.186;6.598;2022-08-02T09:29:06;3.65;;;1.90;;
52978;SDS011;51106;53.186;6.598;2022-08-02T09:31:49;4.95;;;1.83;;
52978;SDS011;51106;53.186;6.598;2022-08-02T09:34:45;2.47;;;1.83;;
52978;SDS011;51106;53.186;6.598;2022-08-02T09:40:33;1.90;;;1.70;;
52978;SDS011;51106;53.186;6.598;2022-08-02T09:46:16;3.97;;;2.10;;
52978;SDS011;51106;53.186;6.598;2022-08-02T09:49:03;3.38;;;2.08;;
52978;SDS011;51106;53.186;6.598;2022-08-02T10:20:22;6.03;;;2.78;;
52978;SDS011;51106;53.186;6.598;2022-08-02T10:22:45;5.25;;;2.47;;
52978;SDS011;51106;53.186;6.598;2022-08-02T10:24:54;3.05;;;2.20;;
52978;SDS011;51106;53.186;6.598;2022-08-02T10:27:01;7.50;;;2.53;;
52978;SDS011;51106;53.186;6.598;2022-08-02T10:36:31;5.63;;;2.67;;
52978;SDS011;51106;53.186;6.598;2022-08-02T10:41:03;5.22;;;2.85;;
52978;SDS011;51106;53.186;6.598;2022-08-02T10:45:44;6.30;;;2.83;;
52978;SDS011;51106;53.186;6.598;2022-08-02T10:48:00;7.93;;;3.28;;
52978;SDS011;51106;53.186;6.598;2022-08-02T10:50:06;3.53;;;2.67;;
52978;SDS011;51106;53.186;6.598;2022-08-02T10:52:11;5.28;;;2.95;;
52978;SDS011;51106;53.186;6.598;2022-08-02T10:54:18;6.35;;;2.83;;
52978;SDS011;51106;53.186;6.598;2022-08-02T10:56:44;4.65;;;2.78;;
52978;SDS011;51106;53.186;6.598;2022-08-02T10:58:49;3.63;;;2.60;;
52978;SDS011;51106;53.186;6.598;2022-08-02T11:01:30;4.68;;;2.70;;
52978;SDS011;51106;53.186;6.598;2022-08-02T11:05:58;5.40;;;2.83;;
52978;SDS011;51106;53.186;6.598;2022-08-02T11:08:26;4.95;;;3.45;;
52978;SDS011;51106;53.186;6.598;2022-08-02T11:15:09;6.05;;;3.10;;
52978;SDS011;51106;53.186;6.598;2022-08-02T11:21:21;7.63;;;3.20;;
52978;SDS011;51106;53.186;6.598;2022-08-02T11:23:38;3.92;;;2.70;;
52978;SDS011;51106;53.186;6.598;2022-08-02T11:25:53;5.00;;;2.92;;
52978;SDS011;51106;53.186;6.598;2022-08-02T11:28:08;4.55;;;2.85;;
52978;SDS011;51106;53.186;6.598;2022-08-02T11:30:14;6.97;;;2.90;;
52978;SDS011;51106;53.186;6.598;2022-08-02T11:32:20;3.90;;;2.85;;
52978;SDS011;51106;53.186;6.598;2022-08-02T11:34:33;3.90;;;2.70;;
52978;SDS011;51106;53.186;6.598;2022-08-02T11:36:42;4.45;;;3.15;;
52978;SDS011;51106;53.186;6.598;2022-08-02T11:39:08;4.55;;;2.97;;
52978;SDS011;51106;53.186;6.598;2022-08-02T11:43:58;4.80;;;2.75;;
52978;SDS011;51106;53.186;6.598;2022-08-02T11:46:04;6.68;;;3.60;;
52978;SDS011;51106;53.186;6.598;2022-08-02T11:48:13;5.15;;;2.78;;
52978;SDS011;51106;53.186;6.598;2022-08-02T11:50:29;4.85;;;2.78;;
52978;SDS011;51106;53.186;6.598;2022-08-02T12:02:58;3.85;;;2.70;;
52978;SDS011;51106;53.186;6.598;2022-08-02T12:05:01;2.97;;;2.60;;
52978;SDS011;51106;53.186;6.598;2022-08-02T12:07:09;3.10;;;2.50;;
52978;SDS011;51106;53.186;6.598;2022-08-02T12:09:15;3.92;;;2.88;;
52978;SDS011;51106;53.186;6.598;2022-08-02T12:11:19;4.68;;;2.67;;
52978;SDS011;51106;53.186;6.598;2022-08-02T12:13:21;5.75;;;3.08;;
52978;SDS011;51106;53.186;6.598;2022-08-02T12:15:28;6.43;;;3.20;;
52978;SDS011;51106;53.186;6.598;2022-08-02T12:17:37;3.53;;;2.70;;
52978;SDS011;51106;53.186;6.598;2022-08-02T12:20:05;4.55;;;2.97;;
52978;SDS011;51106;53.186;6.598;2022-08-02T12:24:25;3.75;;;2.80;;
52978;SDS011;51106;53.186;6.598;2022-08-02T12:26:30;5.07;;;2.80;;
52978;SDS011;51106;53.186;6.598;2022-08-02T12:28:45;4.75;;;3.05;;
52978;SDS011;51106;53.186;6.598;2022-08-02T12:30:48;9.75;;;3.95;;
52978;SDS011;51106;53.186;6.598;2022-08-02T12:32:58;8.20;;;4.68;;
52978;SDS011;51106;53.186;6.598;2022-08-02T12:35:16;8.75;;;4.25;;
52978;SDS011;51106;53.186;6.598;2022-08-02T12:37:27;5.68;;;3.83;;
52978;SDS011;51106;53.186;6.598;2022-08-02T12:39:33;7.70;;;4.47;;
52978;SDS011;51106;53.186;6.598;2022-08-02T12:41:42;6.68;;;3.90;;
52978;SDS011;51106;53.186;6.598;2022-08-02T12:43:55;5.35;;;3.40;;
52978;SDS011;51106;53.186;6.598;2022-08-02T12:45:57;5.10;;;4.00;;
52978;SDS011;51106;53.186;6.598;2022-08-02T12:48:00;7.32;;;4.63;;
52978;SDS011;51106;53.186;6.598;2022-08-02T12:52:25;7.93;;;4.50;;
52978;SDS011;51106;53.186;6.598;2022-08-02T12:54:29;6.65;;;4.75;;
52978;SDS011;51106;53.186;6.598;2022-08-02T12:56:38;7.80;;;4.30;;
52978;SDS011;51106;53.186;6.598;2022-08-02T12:58:49;6.68;;;4.32;;
52978;SDS011;51106;53.186;6.598;2022-08-02T13:00:57;7.97;;;4.85;;
52978;SDS011;51106;53.186;6.598;2022-08-02T13:03:02;6.85;;;4.90;;
52978;SDS011;51106;53.186;6.598;2022-08-02T13:05:10;7.15;;;5.00;;
52978;SDS011;51106;53.186;6.598;2022-08-02T13:07:12;7.30;;;4.75;;
52978;SDS011;51106;53.186;6.598;2022-08-02T13:09:15;6.72;;;4.43;;
52978;SDS011;51106;53.186;6.598;2022-08-02T13:11:18;8.38;;;4.72;;
52978;SDS011;51106;53.186;6.598;2022-08-02T13:13:20;7.97;;;4.88;;
52978;SDS011;51106;53.186;6.598;2022-08-02T13:15:23;5.63;;;4.40;;
52978;SDS011;51106;53.186;6.598;2022-08-02T13:17:49;6.93;;;4.43;;
52978;SDS011;51106;53.186;6.598;2022-08-02T13:19:51;5.22;;;4.32;;
52978;SDS011;51106;53.186;6.598;2022-08-02T13:21:53;6.53;;;4.80;;
52978;SDS011;51106;53.186;6.598;2022-08-02T13:24:11;7.65;;;4.80;;
52978;SDS011;51106;53.186;6.598;2022-08-02T13:26:37;6.63;;;4.35;;
52978;SDS011;51106;53.186;6.598;2022-08-02T13:28:39;5.95;;;4.55;;
52978;SDS011;51106;53.186;6.598;2022-08-02T13:33:49;8.25;;;5.32;;
52978;SDS011;51106;53.186;6.598;2022-08-02T13:35:51;5.00;;;4.28;;
52978;SDS011;51106;53.186;6.598;2022-08-02T13:37:53;8.85;;;5.75;;
52978;SDS011;51106;53.186;6.598;2022-08-02T13:39:56;7.57;;;5.22;;
52978;SDS011;51106;53.186;6.598;2022-08-02T13:42:18;6.28;;;5.20;;
52978;SDS011;51106;53.186;6.598;2022-08-02T13:44:20;5.22;;;4.63;;
52978;SDS011;51106;53.186;6.598;2022-08-02T13:46:22;5.97;;;4.00;;
52978;SDS011;51106;53.186;6.598;2022-08-02T13:48:29;4.05;;;3.55;;
52978;SDS011;51106;53.186;6.598;2022-08-02T13:50:32;9.02;;;3.63;;
52978;SDS011;51106;53.186;6.598;2022-08-02T13:52:35;5.90;;;3.97;;
52978;SDS011;51106;53.186;6.598;2022-08-02T13:54:37;5.95;;;3.90;;
52978;SDS011;51106;53.186;6.598;2022-08-02T13:56:39;7.10;;;4.45;;
52978;SDS011;51106;53.186;6.598;2022-08-02T13:58:41;9.73;;;4.60;;
52978;SDS011;51106;53.186;6.598;2022-08-02T14:00:43;11.02;;;4.70;;
52978;SDS011;51106;53.186;6.598;2022-08-02T14:02:45;5.43;;;4.05;;
52978;SDS011;51106;53.186;6.598;2022-08-02T14:04:47;5.15;;;3.83;;
52978;SDS011;51106;53.186;6.598;2022-08-02T14:06:50;5.30;;;3.92;;
52978;SDS011;51106;53.186;6.598;2022-08-02T14:08:52;6.70;;;4.00;;
52978;SDS011;51106;53.186;6.598;2022-08-02T14:10:54;6.10;;;4.55;;
52978;SDS011;51106;53.186;6.598;2022-08-02T14:12:56;5.80;;;3.90;;
52978;SDS011;51106;53.186;6.598;2022-08-02T14:14:59;6.43;;;4.97;;
52978;SDS011;51106;53.186;6.598;2022-08-02T14:17:01;5.70;;;5.10;;
52978;SDS011;51106;53.186;6.598;2022-08-02T14:19:08;9.90;;;5.53;;
52978;SDS011;51106;53.186;6.598;2022-08-02T14:21:17;6.63;;;4.90;;
52978;SDS011;51106;53.186;6.598;2022-08-02T14:23:19;15.90;;;5.55;;
52978;SDS011;51106;53.186;6.598;2022-08-02T14:25:41;10.65;;;6.25;;
52978;SDS011;51106;53.186;6.598;2022-08-02T14:27:44;8.40;;;6.40;;
52978;SDS011;51106;53.186;6.598;2022-08-02T14:29:46;9.30;;;6.28;;
52978;SDS011;51106;53.186;6.598;2022-08-02T14:31:51;9.75;;;6.18;;
52978;SDS011;51106;53.186;6.598;2022-08-02T14:33:53;11.30;;;6.22;;
52978;SDS011;51106;53.186;6.598;2022-08-02T14:35:58;6.55;;;5.30;;
52978;SDS011;51106;53.186;6.598;2022-08-02T14:38:00;7.50;;;6.00;;
52978;SDS011;51106;53.186;6.598;2022-08-02T14:40:05;9.93;;;5.55;;